Pagina principală
METAR-TAF:

METAR-TAF

Aeroporturi :

Katherine, Australia

Latitudine: 14-26S, longitudine: 132-16E, elevație: 108 m

Observații meteo curente

Raportul a fost făcut în urmă cu 47 de minute, la 10:00 UTC
Vânt 5 kt de la Est/Sud-est
Temperatură 24°C
Umiditate 41%
Presiune 1014 hPa
Vizibilitate de 10 km sau mai mult

METAR: YPTN 261000Z AUTO 11005KT 9999 // NCD 24/10 Q1014

Ora: 20:17 (10:47 UTC)

Prognoză

Raportul a fost făcut în urmă cu 5 ore și 56 de minute, la 04:51 UTC
Prognoză valabilă de la 26 ora 06 UTC la 27 ora 06 UTC
Vânt 8 kt de la Est/Sud-est
Vizibilitate de 10 km sau mai mult
nu există nori sub 1.500 m și nici cumulonimbus

TAF: YPTN 260451Z 2606/2706 11008KT CAVOK

Observații și prognoze meteo pentru peste 4.000 de aeroporturi (rapoarte METAR și TAF).

Stațiile disponibile sunt reprezentate pe hartă prin puncte galbene și roșii.

Țineți indicatorul mouse-ului pe punctul dorit pentru a vedea denumirea stației.

Apoi, faceți clic pentru a vedea observațiile și prognozele meteorologice.

Pentru a schimba harta: Pentru mărire, faceți clic pe butoanele verzi cu cruce neagră; pentru micșorare, pe butonul verde cu o liniuță; pentru hărți învecinate, pe săgețile verzi.


METAR-TAF: